createdAt,value
2016-05-19T00:00:45.495Z,76.03
2016-05-19T00:01:51.200Z,75.83
2016-05-19T00:02:45.531Z,75.83
2016-05-19T00:03:48.081Z,75.87
2016-05-19T00:04:45.036Z,76.16
2016-05-19T00:05:45.023Z,76.31
2016-05-19T00:06:44.931Z,76.16
2016-05-19T00:07:47.903Z,76.21
2016-05-19T00:08:44.844Z,76.31
2016-05-19T00:09:44.784Z,76.03
2016-05-19T00:10:47.740Z,76.03
2016-05-19T00:11:44.695Z,76.21
2016-05-19T00:12:44.636Z,76.21
2016-05-19T00:13:47.608Z,76.21
2016-05-19T00:14:44.548Z,76.31
2016-05-19T00:15:44.503Z,76.21
2016-05-19T00:16:44.459Z,76.21
2016-05-19T00:17:44.244Z,76.31
2016-05-19T00:18:47.355Z,76.21
2016-05-19T00:19:44.311Z,76.12
2016-05-19T00:20:47.110Z,76.12
2016-05-19T00:21:50.238Z,76.31
2016-05-19T00:22:44.163Z,76.12
2016-05-19T00:23:44.509Z,76.31
2016-05-19T00:24:47.075Z,75.93
2016-05-19T00:25:44.015Z,76.21
2016-05-19T00:26:43.970Z,76.31
2016-05-19T00:27:43.942Z,76.5
2016-05-19T00:28:43.866Z,76.4
2016-05-19T00:29:43.823Z,76.21
2016-05-19T00:30:46.762Z,76.03
2016-05-19T00:31:43.734Z,76.31
2016-05-19T00:32:43.673Z,75.83
2016-05-19T00:33:46.629Z,76.03
2016-05-19T00:34:43.586Z,75.93
2016-05-19T00:35:43.542Z,76.21
2016-05-19T00:36:43.498Z,76.12
2016-05-19T00:37:43.422Z,76.5
2016-05-19T00:38:43.222Z,76.5
2016-05-19T00:39:43.537Z,76.31
2016-05-19T00:40:43.289Z,76.5
2016-05-19T00:41:43.230Z,76.31
2016-05-19T00:42:43.186Z,76.4
2016-05-19T00:43:46.156Z,76.5
2016-05-19T00:44:43.097Z,76.69
2016-05-19T00:45:43.241Z,76.5
2016-05-19T00:46:46.055Z,76.4
2016-05-19T00:47:49.167Z,76.31
2016-05-19T00:48:42.889Z,76.4
2016-05-19T00:49:45.844Z,76.4
2016-05-19T00:50:42.785Z,76.31
2016-05-19T00:51:42.741Z,76.79
2016-05-19T00:52:42.696Z,76.69
2016-05-19T00:53:42.652Z,76.31
2016-05-19T00:54:45.608Z,76.12
2016-05-19T00:55:45.564Z,76.79
2016-05-19T00:56:42.505Z,76.6
2016-05-19T00:57:42.460Z,76.31
2016-05-19T00:58:42.400Z,76.4
2016-05-19T00:59:42.591Z,76.79
2016-05-19T01:00:42.296Z,76.6
2016-05-19T01:01:45.267Z,76.69
2016-05-19T01:02:42.192Z,76.88
2016-05-19T01:03:42.164Z,76.88
2016-05-19T01:04:48.135Z,76.88
2016-05-19T01:05:41.904Z,76.98
2016-05-19T01:06:42.015Z,76.88
2016-05-19T01:07:41.956Z,76.6
2016-05-19T01:08:41.943Z,76.69
2016-05-19T01:09:44.867Z,76.6
2016-05-19T01:10:41.823Z,76.98
2016-05-19T01:11:41.763Z,76.88
2016-05-19T01:12:41.578Z,77.08
2016-05-19T01:13:41.659Z,77.08
2016-05-19T01:14:41.834Z,77.08
2016-05-19T01:15:41.571Z,76.88
2016-05-19T01:16:41.527Z,76.88
2016-05-19T01:17:41.483Z,76.98
2016-05-19T01:18:41.439Z,77.17
2016-05-19T01:19:41.378Z,76.79
2016-05-19T01:20:44.349Z,76.98
2016-05-19T01:21:41.275Z,76.98
2016-05-19T01:22:44.247Z,77.17
2016-05-19T01:23:41.374Z,76.98
2016-05-19T01:24:41.345Z,76.98
2016-05-19T01:25:41.082Z,76.79
2016-05-19T01:26:41.038Z,76.98
2016-05-19T01:27:40.979Z,76.88
2016-05-19T01:28:40.934Z,77.17
2016-05-19T01:29:40.890Z,76.88
2016-05-19T01:30:40.846Z,76.69
2016-05-19T01:31:40.629Z,76.79
2016-05-19T01:32:40.757Z,76.6
2016-05-19T01:33:40.760Z,76.6
2016-05-19T01:34:46.668Z,76.6
2016-05-19T01:35:40.609Z,76.69
2016-05-19T01:36:43.565Z,76.79
2016-05-19T01:37:40.505Z,76.21
2016-05-19T01:38:40.665Z,76.12
2016-05-19T01:39:43.416Z,76.21
2016-05-19T01:40:46.372Z,76.69
2016-05-19T01:41:46.328Z,76.31
2016-05-19T01:42:40.097Z,76.6
2016-05-19T01:43:40.256Z,76.69
2016-05-19T01:44:40.165Z,76.88
2016-05-19T01:45:43.120Z,77.17
2016-05-19T01:46:42.967Z,77.08
2016-05-19T01:47:46.047Z,76.6
2016-05-19T01:48:39.816Z,77.36
2016-05-19T01:49:42.928Z,77.36
2016-05-19T01:50:39.869Z,77.45
2016-05-19T01:51:42.824Z,77.45
2016-05-19T01:52:42.983Z,77.26
2016-05-19T01:53:42.720Z,77.7
2016-05-19T01:54:42.676Z,77.45
2016-05-19T01:55:42.819Z,77.36
2016-05-19T01:56:42.572Z,77.08
2016-05-19T01:57:39.527Z,77.55
2016-05-19T01:58:42.343Z,77.17
2016-05-19T01:59:42.643Z,77.26
2016-05-19T02:00:42.395Z,77.45
2016-05-19T02:01:39.523Z,77.55
2016-05-19T02:02:42.275Z,77.55
2016-05-19T02:03:39.246Z,77.23
2016-05-19T02:04:39.188Z,77.36
2016-05-19T02:05:39.143Z,77.36
2016-05-19T02:06:39.083Z,77.45
2016-05-19T02:07:42.054Z,77.36
2016-05-19T02:08:42.214Z,78.03
2016-05-19T02:09:41.967Z,77.89
2016-05-19T02:10:39.110Z,77.99
2016-05-19T02:11:38.690Z,78.56
2016-05-19T02:12:39.006Z,78.66
2016-05-19T02:13:38.759Z,78.37
2016-05-19T02:14:38.948Z,78.94
2016-05-19T02:15:38.670Z,78.75
2016-05-19T02:16:41.610Z,78.85
2016-05-19T02:17:41.566Z,79.04
2016-05-19T02:18:38.506Z,79.23
2016-05-19T02:19:38.446Z,78.94
2016-05-19T02:20:38.246Z,78.94
2016-05-19T02:21:41.358Z,79.14
2016-05-19T02:22:44.313Z,79.23
2016-05-19T02:23:38.269Z,79.33
2016-05-19T02:24:41.217Z,79.43
2016-05-19T02:25:38.142Z,79.43
2016-05-19T02:26:38.301Z,78.75
2016-05-19T02:27:38.054Z,78.75
2016-05-19T02:28:41.041Z,78.85
2016-05-19T02:29:41.153Z,78.75
2016-05-19T02:30:37.905Z,78.47
2016-05-19T02:31:40.861Z,78.56
2016-05-19T02:32:37.801Z,78.13
2016-05-19T02:33:40.616Z,78.13
2016-05-19T02:34:37.713Z,78.28
2016-05-19T02:35:40.669Z,77.84
2016-05-19T02:36:40.624Z,77.74
2016-05-19T02:37:37.784Z,77.36
2016-05-19T02:38:37.412Z,77.55
2016-05-19T02:39:37.461Z,77.26
2016-05-19T02:40:37.445Z,77.36
2016-05-19T02:41:40.428Z,76.88
2016-05-19T02:42:40.443Z,76.88
2016-05-19T02:43:40.287Z,77.26
2016-05-19T02:44:37.630Z,77.08
2016-05-19T02:45:43.454Z,76.4
2016-05-19T02:46:37.394Z,76.21
2016-05-19T02:47:40.333Z,76.79
2016-05-19T02:48:37.305Z,76.6
2016-05-19T02:49:37.261Z,76.69
2016-05-19T02:50:40.241Z,76.6
2016-05-19T02:51:37.172Z,76.69
2016-05-19T02:52:43.149Z,76.6
2016-05-19T02:53:37.281Z,76.79
2016-05-19T02:54:37.056Z,76.6
2016-05-19T02:55:40.015Z,76.31
2016-05-19T02:56:39.958Z,76.6
2016-05-19T02:57:39.774Z,76.79
2016-05-19T02:58:39.888Z,76.31
2016-05-19T02:59:39.831Z,76.6
2016-05-19T03:00:39.991Z,77.17
2016-05-19T03:01:36.729Z,77.17
2016-05-19T03:02:36.685Z,77.03
2016-05-19T03:03:39.642Z,77.23
2016-05-19T03:04:39.582Z,77.03
2016-05-19T03:05:36.930Z,77.32
2016-05-19T03:06:39.480Z,77.32
2016-05-19T03:07:36.435Z,77.42
2016-05-19T03:08:36.392Z,77.51
2016-05-19T03:09:36.347Z,77.89
2016-05-19T03:10:39.303Z,77.89
2016-05-19T03:11:36.150Z,77.89
2016-05-19T03:12:36.044Z,78.28
2016-05-19T03:13:39.156Z,78.09
2016-05-19T03:14:39.112Z,78.09
2016-05-19T03:15:39.052Z,77.99
2016-05-19T03:16:43.445Z,78.56
2016-05-19T03:17:38.964Z,78.18
2016-05-19T03:18:38.935Z,78.56
2016-05-19T03:19:38.860Z,78.56
2016-05-19T03:20:38.800Z,78.85
2016-05-19T03:21:41.958Z,78.75
2016-05-19T03:22:38.727Z,79.04
2016-05-19T03:23:44.729Z,79.33
2016-05-19T03:24:38.623Z,79.04
2016-05-19T03:25:35.766Z,79.23
2016-05-19T03:26:35.721Z,79.61
2016-05-19T03:27:41.474Z,79.61
2016-05-19T03:28:35.618Z,79.8
2016-05-19T03:29:41.387Z,79.9
2016-05-19T03:30:35.311Z,79.71
2016-05-19T03:31:44.110Z,79.71
2016-05-19T03:32:38.223Z,80.38
2016-05-19T03:33:35.163Z,80.09
2016-05-19T03:34:35.119Z,80.28
2016-05-19T03:35:34.918Z,80.19
2016-05-19T03:36:34.999Z,79.99
2016-05-19T03:37:37.970Z,80.09
2016-05-19T03:38:34.753Z,80.28
2016-05-19T03:39:37.867Z,80.66
2016-05-19T03:40:34.806Z,80.57
2016-05-19T03:41:37.637Z,80.85
2016-05-19T03:42:34.718Z,80.85
2016-05-19T03:43:34.674Z,80.66
2016-05-19T03:44:34.458Z,80.76
2016-05-19T03:45:37.569Z,80.95
2016-05-19T03:46:37.541Z,81.24
2016-05-19T03:47:34.888Z,81.62
2016-05-19T03:48:34.438Z,81.71
2016-05-19T03:49:34.581Z,81.24
2016-05-19T03:50:34.724Z,81.14
2016-05-19T03:51:34.493Z,81.33
2016-05-19T03:52:34.308Z,80.81
2016-05-19T03:53:34.405Z,81.48
2016-05-19T03:54:37.141Z,81.48
2016-05-19T03:55:36.941Z,81.58
2016-05-19T03:56:34.068Z,81.48
2016-05-19T03:57:33.977Z,81.77
2016-05-19T03:58:33.933Z,82.06
2016-05-19T03:59:33.873Z,82.06
2016-05-19T04:00:33.829Z,81.58
2016-05-19T04:01:33.644Z,81.48
2016-05-19T04:02:36.756Z,81.38
2016-05-19T04:03:33.681Z,81.67
2016-05-19T04:04:33.668Z,81.77
2016-05-19T04:05:33.623Z,82.15
2016-05-19T04:06:36.533Z,82.15
2016-05-19T04:07:33.692Z,81.96
2016-05-19T04:08:36.460Z,81.67
2016-05-19T04:09:33.385Z,81.58
2016-05-19T04:10:36.559Z,82.06
2016-05-19T04:11:33.140Z,81.96
2016-05-19T04:12:33.237Z,81.77
2016-05-19T04:13:36.223Z,81.96
2016-05-19T04:14:33.132Z,82.34
2016-05-19T04:15:36.103Z,82.34
2016-05-19T04:16:33.247Z,82.06
2016-05-19T04:17:36.000Z,82.34
2016-05-19T04:18:38.971Z,82.43
2016-05-19T04:19:35.911Z,82.34
2016-05-19T04:20:35.851Z,82.15
2016-05-19T04:21:33.198Z,81.86
2016-05-19T04:22:35.763Z,82.06
2016-05-19T04:23:32.704Z,82.34
2016-05-19T04:24:35.863Z,82.24
2016-05-19T04:25:38.459Z,81.96
2016-05-19T04:26:35.602Z,81.96
2016-05-19T04:27:32.496Z,82.06
2016-05-19T04:28:32.468Z,81.96
2016-05-19T04:29:35.407Z,81.86
2016-05-19T04:30:32.473Z,81.77
2016-05-19T04:31:32.288Z,82.15
2016-05-19T04:32:32.259Z,82.06
2016-05-19T04:33:35.215Z,81.77
2016-05-19T04:34:35.170Z,81.86
2016-05-19T04:35:34.954Z,81.58
2016-05-19T04:36:34.910Z,81.86
2016-05-19T04:37:35.006Z,81.35
2016-05-19T04:38:32.010Z,81.1
2016-05-19T04:39:31.918Z,81.48
2016-05-19T04:40:31.702Z,81.58
2016-05-19T04:41:32.018Z,81.77
2016-05-19T04:42:34.755Z,81.38
2016-05-19T04:43:31.586Z,80.91
2016-05-19T04:44:31.666Z,80.96
2016-05-19T04:45:31.606Z,81.38
2016-05-19T04:46:31.561Z,81.06
2016-05-19T04:47:31.519Z,81.06
2016-05-19T04:48:31.458Z,81.1
2016-05-19T04:49:34.774Z,81.38
2016-05-19T04:50:34.386Z,80.43
2016-05-19T04:51:37.325Z,81.1
2016-05-19T04:52:31.469Z,80.72
2016-05-19T04:53:34.221Z,80.58
2016-05-19T04:54:34.178Z,80.58
2016-05-19T04:55:31.118Z,81.06
2016-05-19T04:56:31.276Z,80.81
2016-05-19T04:57:31.014Z,80.77
2016-05-19T04:58:37.001Z,80.58
2016-05-19T04:59:33.941Z,80.68
2016-05-19T05:00:30.866Z,80.68
2016-05-19T05:01:34.024Z,80.39
2016-05-19T05:02:36.652Z,80.39
2016-05-19T05:03:30.717Z,80.58
2016-05-19T05:04:33.673Z,80.01
2016-05-19T05:05:33.629Z,80.2
2016-05-19T05:06:30.554Z,80.58
2016-05-19T05:07:36.540Z,80.58
2016-05-19T05:08:33.481Z,80.68
2016-05-19T05:09:30.421Z,80.68
2016-05-19T05:10:33.376Z,80.3
2016-05-19T05:11:30.317Z,80.58
2016-05-19T05:12:33.320Z,80.33
2016-05-19T05:13:30.214Z,80.3
2016-05-19T05:14:33.169Z,80.15
2016-05-19T05:15:30.328Z,80.24
2016-05-19T05:16:30.081Z,80.01
2016-05-19T05:17:33.036Z,80.2
2016-05-19T05:18:32.961Z,80.11
2016-05-19T05:19:32.792Z,80.15
2016-05-19T05:20:29.857Z,80.11
2016-05-19T05:21:29.813Z,80.15
2016-05-19T05:22:32.783Z,79.86
2016-05-19T05:23:29.705Z,79.96
2016-05-19T05:24:32.900Z,79.57
2016-05-19T05:25:29.619Z,79.67
2016-05-19T05:26:29.574Z,79.48
2016-05-19T05:27:29.544Z,79.86
2016-05-19T05:28:29.469Z,79.57
2016-05-19T05:29:32.303Z,79.77
2016-05-19T05:30:29.366Z,79.86
2016-05-19T05:31:29.321Z,79.38
2016-05-19T05:32:32.280Z,79.77
2016-05-19T05:33:29.233Z,79.19
2016-05-19T05:34:29.188Z,79.38
2016-05-19T05:35:29.348Z,79.1
2016-05-19T05:36:29.085Z,79.77
2016-05-19T05:37:29.056Z,79.48
2016-05-19T05:38:29.184Z,79.86
2016-05-19T05:39:31.940Z,79.77
2016-05-19T05:40:28.877Z,79.77
2016-05-19T05:41:28.817Z,79.77
2016-05-19T05:42:37.823Z,79.77
2016-05-19T05:43:28.745Z,79.77
2016-05-19T05:44:28.670Z,79.57
2016-05-19T05:45:31.643Z,79.48
2016-05-19T05:46:28.581Z,79.77
2016-05-19T05:47:34.555Z,79.67
2016-05-19T05:48:28.695Z,79.28
2016-05-19T05:49:28.510Z,79.28
2016-05-19T05:50:28.373Z,79.38
2016-05-19T05:51:31.347Z,79.57
2016-05-19T05:52:31.287Z,79.57
2016-05-19T05:53:28.240Z,79.67
2016-05-19T05:54:28.196Z,79.48
2016-05-19T05:55:31.155Z,79.28
2016-05-19T05:56:31.094Z,79.38
2016-05-19T05:57:28.032Z,79.38
2016-05-19T05:58:27.972Z,79.1
2016-05-19T05:59:31.649Z,79.1
2016-05-19T06:00:28.180Z,79
2016-05-19T06:01:27.699Z,79.28
2016-05-19T06:02:27.796Z,79.28
2016-05-19T06:03:30.752Z,79.48
2016-05-19T06:04:27.707Z,78.72
2016-05-19T06:05:30.647Z,78.91
2016-05-19T06:06:27.791Z,78.62
2016-05-19T06:07:30.543Z,78.43
2016-05-19T06:08:27.359Z,78.72
2016-05-19T06:09:27.439Z,78.43
2016-05-19T06:10:27.395Z,78.91
2016-05-19T06:11:30.351Z,78.81
2016-05-19T06:12:30.306Z,78.62
2016-05-19T06:13:30.168Z,79
2016-05-19T06:14:27.031Z,78.81
2016-05-19T06:15:27.143Z,78.72
2016-05-19T06:16:27.099Z,78.43
2016-05-19T06:17:27.039Z,78.33
2016-05-19T06:18:26.995Z,78.43
2016-05-19T06:19:26.950Z,78.43
2016-05-19T06:20:27.125Z,78.33
2016-05-19T06:21:27.080Z,78.52
2016-05-19T06:22:28.522Z,77.95
2016-05-19T06:23:27.086Z,77.67
2016-05-19T06:24:26.698Z,77.76
2016-05-19T06:25:26.655Z,77.95
2016-05-19T06:26:26.611Z,77.86
2016-05-19T06:27:26.566Z,77.57
2016-05-19T06:28:29.505Z,77.28
2016-05-19T06:29:29.461Z,77.19
2016-05-19T06:30:32.420Z,77.28
2016-05-19T06:31:26.357Z,77.38
2016-05-19T06:32:26.314Z,77.57
2016-05-19T06:33:26.254Z,77.38
2016-05-19T06:34:29.210Z,77.28
2016-05-19T06:35:26.150Z,77.09
2016-05-19T06:36:25.949Z,77.09
2016-05-19T06:37:32.077Z,77.09
2016-05-19T06:38:29.454Z,76.9
2016-05-19T06:39:25.973Z,76.9
2016-05-19T06:40:25.929Z,77.09
2016-05-19T06:41:25.698Z,76.71
2016-05-19T06:42:25.825Z,76.71
2016-05-19T06:43:25.609Z,76.9
2016-05-19T06:44:25.706Z,77
2016-05-19T06:45:28.693Z,77
2016-05-19T06:46:28.632Z,76.71
2016-05-19T06:47:25.573Z,76.62
2016-05-19T06:48:25.357Z,76.42
2016-05-19T06:49:25.469Z,76.42
2016-05-19T06:50:25.424Z,76.62
2016-05-19T06:51:25.208Z,76.23
2016-05-19T06:52:31.336Z,76.14
2016-05-19T06:53:25.870Z,76.14
2016-05-19T06:54:25.217Z,76.14
2016-05-19T06:55:25.016Z,76.08
2016-05-19T06:56:25.113Z,75.95
2016-05-19T06:57:25.069Z,76.23
2016-05-19T06:58:25.025Z,75.95
2016-05-19T06:59:24.995Z,76.14
2016-05-19T07:00:24.780Z,76.37
2016-05-19T07:01:24.876Z,75.79
2016-05-19T07:02:25.066Z,75.79
2016-05-19T07:03:28.099Z,75.98
2016-05-19T07:04:24.727Z,75.51
2016-05-19T07:05:25.199Z,75.51
2016-05-19T07:06:24.640Z,75.51
2016-05-19T07:07:24.782Z,75.79
2016-05-19T07:08:24.395Z,75.7
2016-05-19T07:09:27.507Z,75.6
2016-05-19T07:10:27.446Z,75.32
2016-05-19T07:11:24.403Z,75.22
2016-05-19T07:12:24.421Z,75.51
2016-05-19T07:13:24.314Z,74.84
2016-05-19T07:14:27.239Z,75.13
2016-05-19T07:15:24.195Z,75.03
2016-05-19T07:16:24.400Z,75.6
2016-05-19T07:17:27.106Z,75.03
2016-05-19T07:18:24.062Z,74.84
2016-05-19T07:19:24.034Z,74.84
2016-05-19T07:20:27.270Z,74.65
2016-05-19T07:21:23.914Z,74.55
2016-05-19T07:22:32.854Z,74.37
2016-05-19T07:23:35.828Z,74.74
2016-05-19T07:24:26.750Z,74.17
2016-05-19T07:25:23.753Z,73.69
2016-05-19T07:26:23.490Z,73.98
2016-05-19T07:27:23.633Z,73.88
2016-05-19T07:28:23.589Z,74.02
2016-05-19T07:29:26.514Z,73.6
2016-05-19T07:30:26.470Z,73.54
2016-05-19T07:31:23.410Z,73.44
2016-05-19T07:32:23.928Z,72.97
2016-05-19T07:33:29.337Z,72.58
2016-05-19T07:34:26.465Z,72.87
2016-05-19T07:35:23.218Z,72.39
2016-05-19T07:36:23.174Z,72.01
2016-05-19T07:37:23.379Z,72.11
2016-05-19T07:38:23.366Z,71.86
2016-05-19T07:39:26.040Z,71.34
2016-05-19T07:40:22.965Z,71.15
2016-05-19T07:41:26.921Z,71.15
2016-05-19T07:42:22.954Z,70.39
2016-05-19T07:43:22.832Z,70.61
2016-05-19T07:44:22.851Z,70.48
2016-05-19T07:45:22.759Z,70.23
2016-05-19T07:46:22.685Z,70.33
2016-05-19T07:47:25.656Z,69.37
2016-05-19T07:48:22.595Z,69.85
2016-05-19T07:49:22.881Z,69.27
2016-05-19T07:50:25.493Z,68.7
2016-05-19T07:51:25.839Z,69.09
2016-05-19T07:52:25.389Z,68.99
2016-05-19T07:53:22.531Z,68.9
2016-05-19T07:54:22.300Z,68.8
2016-05-19T07:55:22.458Z,68.23
2016-05-19T07:56:22.024Z,68.7
2016-05-19T07:57:22.167Z,67.65
2016-05-19T07:58:22.405Z,67.84
2016-05-19T07:59:22.047Z,67.65
2016-05-19T08:00:22.550Z,67.08
2016-05-19T08:01:22.256Z,67.02
2016-05-19T08:02:21.930Z,67.11
2016-05-19T08:03:21.871Z,66.25
2016-05-19T08:04:25.029Z,66.83
2016-05-19T08:05:24.766Z,66.06
2016-05-19T08:06:27.738Z,65.87
2016-05-19T08:07:24.679Z,65.48
2016-05-19T08:08:22.385Z,65.39
2016-05-19T08:09:21.575Z,65.01
2016-05-19T08:10:21.421Z,64.82
2016-05-19T08:11:21.533Z,65.01
2016-05-19T08:12:21.957Z,64.53
2016-05-19T08:13:30.413Z,64.43
2016-05-19T08:14:21.323Z,64.62
2016-05-19T08:15:21.481Z,64.53
2016-05-19T08:16:21.249Z,64.53
2016-05-19T08:17:21.393Z,64.15
2016-05-19T08:18:27.146Z,64.15
2016-05-19T08:19:22.601Z,63.32
2016-05-19T08:20:21.542Z,62.74
2016-05-19T08:21:23.997Z,62.08
2016-05-19T08:22:24.047Z,61.98
2016-05-19T08:23:23.893Z,61.41
2016-05-19T08:24:23.849Z,61.12
2016-05-19T08:25:20.648Z,61.12
2016-05-19T08:26:23.760Z,60.83
2016-05-19T08:27:23.560Z,60.9
2016-05-19T08:28:20.891Z,60.9
2016-05-19T08:29:23.644Z,60.8
2016-05-19T08:30:20.569Z,60.55
2016-05-19T08:31:20.555Z,60.74
2016-05-19T08:32:23.449Z,60.35
2016-05-19T08:33:20.624Z,60.45
2016-05-19T08:34:20.391Z,59.49
2016-05-19T08:35:20.380Z,59.69
2016-05-19T08:36:20.272Z,59.3
2016-05-19T08:37:20.072Z,59.2
2016-05-19T08:38:20.230Z,58.76
2016-05-19T08:39:23.155Z,58.56
2016-05-19T08:40:20.095Z,58.28
2016-05-19T08:41:20.035Z,58.18
2016-05-19T08:42:20.007Z,57.9
2016-05-19T08:43:19.963Z,57.61
2016-05-19T08:44:19.919Z,57.8
2016-05-19T08:45:19.843Z,58.18
2016-05-19T08:46:19.815Z,57.87
2016-05-19T08:47:19.645Z,58.34
2016-05-19T08:48:19.695Z,57.97
2016-05-19T08:49:19.931Z,58.25
2016-05-19T08:50:22.700Z,58.44
2016-05-19T08:51:25.593Z,58.25
2016-05-19T08:52:19.721Z,58.25
2016-05-19T08:53:19.677Z,57.48
2016-05-19T08:54:19.305Z,57.58
2016-05-19T08:55:19.401Z,56.91
2016-05-19T08:56:22.373Z,57.2
2016-05-19T08:57:22.297Z,57.01
2016-05-19T08:58:19.222Z,56.62
2016-05-19T08:59:19.068Z,56.82
2016-05-19T09:00:19.149Z,56.84
2016-05-19T09:01:19.089Z,56.65
2016-05-19T09:02:28.045Z,56.65
2016-05-19T09:03:19.345Z,56.56
2016-05-19T09:04:18.941Z,55.88
2016-05-19T09:05:18.944Z,55.98
2016-05-19T09:06:18.853Z,55.88
2016-05-19T09:07:18.808Z,56.27
2016-05-19T09:08:22.451Z,55.98
2016-05-19T09:09:21.907Z,55.88
2016-05-19T09:10:18.676Z,55.88
2016-05-19T09:11:21.632Z,55.86
2016-05-19T09:12:21.790Z,55.88
2016-05-19T09:13:18.544Z,56.17
2016-05-19T09:14:18.484Z,56.08
2016-05-19T09:15:18.720Z,55.31
2016-05-19T09:16:21.411Z,55.41
2016-05-19T09:17:18.335Z,55.02
2016-05-19T09:18:24.135Z,54.28
2016-05-19T09:19:18.247Z,53.81
2016-05-19T09:20:18.188Z,53.62
2016-05-19T09:21:18.159Z,53.62
2016-05-19T09:22:18.270Z,54.07
2016-05-19T09:23:18.258Z,54.26
2016-05-19T09:24:18.198Z,54.16
2016-05-19T09:25:17.951Z,54.64
2016-05-19T09:26:20.906Z,54.36
2016-05-19T09:27:20.800Z,54.26
2016-05-19T09:28:20.833Z,54.36
2016-05-19T09:29:17.774Z,54.07
2016-05-19T09:30:17.917Z,54.64
2016-05-19T09:31:17.686Z,54.93
2016-05-19T09:32:17.626Z,54.93
2016-05-19T09:33:17.581Z,55.02
2016-05-19T09:34:17.538Z,54.93
2016-05-19T09:35:17.508Z,54.93
2016-05-19T09:36:17.449Z,55.19
2016-05-19T09:37:17.404Z,55.57
2016-05-19T09:38:18.080Z,55.38
2016-05-19T09:39:17.880Z,55.19
2016-05-19T09:40:17.116Z,55.47
2016-05-19T09:41:17.307Z,55.31
2016-05-19T09:42:17.371Z,55.02
2016-05-19T09:43:20.171Z,54.55
2016-05-19T09:44:17.065Z,54.55
2016-05-19T09:45:17.082Z,54.16
2016-05-19T09:46:16.991Z,53.4
2016-05-19T09:47:16.916Z,53.3
2016-05-19T09:48:16.872Z,52.83
2016-05-19T09:49:16.828Z,52.83
2016-05-19T09:50:16.784Z,52.92
2016-05-19T09:51:16.927Z,52.15
2016-05-19T09:52:25.695Z,52.06
2016-05-19T09:53:16.620Z,52.15
2016-05-19T09:54:16.888Z,51.87
2016-05-19T09:55:16.547Z,51.48
2016-05-19T09:56:16.690Z,51.48
2016-05-19T09:57:16.459Z,51.89
2016-05-19T09:58:16.539Z,51.7
2016-05-19T09:59:19.401Z,51.42
2016-05-19T10:00:25.342Z,51.03
2016-05-19T10:01:16.250Z,50.56
2016-05-19T10:02:19.456Z,50.74
2016-05-19T10:03:16.162Z,50.84
2016-05-19T10:04:15.978Z,51.03
2016-05-19T10:05:16.089Z,50.46
2016-05-19T10:06:16.077Z,50.17
2016-05-19T10:07:19.002Z,49.69
2016-05-19T10:08:16.411Z,49.88
2016-05-19T10:09:19.022Z,49.88
2016-05-19T10:10:15.697Z,49.4
2016-05-19T10:11:18.793Z,49.21
2016-05-19T10:12:15.780Z,49.4
2016-05-19T10:13:15.705Z,48.93
2016-05-19T10:14:15.708Z,48.75
2016-05-19T10:15:15.601Z,49.24
2016-05-19T10:16:15.604Z,49.24
2016-05-19T10:17:15.529Z,48.93
2016-05-19T10:18:15.468Z,48.95
2016-05-19T10:19:15.518Z,48.47
2016-05-19T10:20:18.396Z,48.85
2016-05-19T10:21:15.321Z,48.95
2016-05-19T10:22:15.120Z,48.95
2016-05-19T10:23:15.623Z,48.57
2016-05-19T10:24:17.265Z,48.28
2016-05-19T10:25:15.518Z,47.99
2016-05-19T10:26:15.146Z,47.32
2016-05-19T10:27:18.071Z,47.32
2016-05-19T10:28:18.042Z,47.51
2016-05-19T10:29:17.967Z,47.42
2016-05-19T10:30:15.110Z,47.42
2016-05-19T10:31:17.878Z,47.51
2016-05-19T10:32:14.803Z,46.77
2016-05-19T10:33:14.790Z,46.58
2016-05-19T10:34:14.809Z,46.67
2016-05-19T10:35:14.717Z,46.58
2016-05-19T10:36:14.626Z,46.41
2016-05-19T10:37:14.582Z,46.22
2016-05-19T10:38:17.647Z,45.93
2016-05-19T10:39:14.322Z,45.93
2016-05-19T10:40:14.434Z,46.12
2016-05-19T10:41:14.468Z,46.31
2016-05-19T10:42:14.361Z,46.1
2016-05-19T10:43:14.286Z,46.29
2016-05-19T10:44:14.679Z,46.19
2016-05-19T10:45:14.229Z,46.29
2016-05-19T10:46:14.403Z,46.29
2016-05-19T10:47:14.031Z,46.1
2016-05-19T10:48:13.924Z,46.1
2016-05-19T10:49:14.880Z,46.19
2016-05-19T10:50:13.992Z,46.48
2016-05-19T10:51:16.963Z,46.55
2016-05-19T10:52:14.076Z,46.26
2016-05-19T10:53:13.844Z,46.26
2016-05-19T10:54:16.721Z,46.55
2016-05-19T10:55:13.756Z,46.75
2016-05-19T10:56:16.712Z,46.55
2016-05-19T10:57:13.839Z,46.48
2016-05-19T10:58:22.622Z,46.1
2016-05-19T10:59:13.407Z,46.1
2016-05-19T11:00:16.582Z,46
2016-05-19T11:01:13.475Z,46.19
2016-05-19T11:02:13.431Z,45.9
2016-05-19T11:03:13.386Z,46.1
2016-05-19T11:04:16.248Z,45.9
2016-05-19T11:05:13.266Z,46.19
2016-05-19T11:06:13.238Z,46.1
2016-05-19T11:07:16.241Z,45.81
2016-05-19T11:08:13.150Z,45.9
2016-05-19T11:09:13.934Z,45.52
2016-05-19T11:10:13.702Z,45.43
2016-05-19T11:11:13.001Z,45.23
2016-05-19T11:12:15.957Z,45.14
2016-05-19T11:13:12.758Z,44.68
2016-05-19T11:14:15.697Z,44.11
2016-05-19T11:15:12.825Z,43.55
2016-05-19T11:16:12.780Z,43.36
2016-05-19T11:17:15.736Z,43.07
2016-05-19T11:18:12.660Z,42.88
2016-05-19T11:19:12.616Z,42.98
2016-05-19T11:20:12.573Z,42.6
2016-05-19T11:21:15.529Z,42.3
2016-05-19T11:22:12.515Z,42.6
2016-05-19T11:23:12.440Z,42.4
2016-05-19T11:24:12.615Z,41.93
2016-05-19T11:25:18.368Z,41.73
2016-05-19T11:26:12.323Z,41.16
2016-05-19T11:27:15.498Z,41.54
2016-05-19T11:28:12.235Z,41.54
2016-05-19T11:29:12.019Z,41.44
2016-05-19T11:30:12.178Z,41.25
2016-05-19T11:31:15.103Z,41.35
2016-05-19T11:32:11.980Z,41.16
2016-05-19T11:33:13.358Z,40.96
2016-05-19T11:34:15.094Z,40.96
2016-05-19T11:35:14.925Z,41.06
2016-05-19T11:36:14.866Z,40.29
2016-05-19T11:37:14.931Z,40.58
2016-05-19T11:38:14.964Z,40.29
2016-05-19T11:39:15.014Z,40.39
2016-05-19T11:40:11.688Z,40.2
2016-05-19T11:41:11.613Z,39.81
2016-05-19T11:42:11.617Z,40.39
2016-05-19T11:43:11.744Z,40
2016-05-19T11:44:11.324Z,40.2
2016-05-19T11:45:11.296Z,40
2016-05-19T11:46:11.424Z,39.62
2016-05-19T11:47:11.590Z,39.23
2016-05-19T11:48:14.226Z,39.33
2016-05-19T11:49:11.472Z,39.04
2016-05-19T11:50:11.391Z,39.14
2016-05-19T11:51:11.370Z,38.85
2016-05-19T11:52:11.359Z,39.04
2016-05-19T11:53:14.329Z,38.85
2016-05-19T11:54:11.502Z,38.85
2016-05-19T11:55:11.457Z,38.95
2016-05-19T11:56:11.427Z,38.76
2016-05-19T11:57:11.608Z,39.04
2016-05-19T11:58:11.381Z,38.95
2016-05-19T11:59:11.405Z,39.04
2016-05-19T12:00:13.914Z,39.43
2016-05-19T12:01:11.016Z,39.04
2016-05-19T12:02:13.974Z,39.04
2016-05-19T12:03:10.931Z,39.33
2016-05-19T12:04:10.888Z,39.04
2016-05-19T12:05:10.846Z,38.96
2016-05-19T12:06:11.226Z,38.96
2016-05-19T12:07:10.964Z,39.16
2016-05-19T12:08:10.718Z,39.16
2016-05-19T12:09:14.049Z,38.96
2016-05-19T12:10:13.630Z,38.68
2016-05-19T12:11:10.587Z,38.6
2016-05-19T12:12:10.574Z,38.12
2016-05-19T12:13:13.484Z,38.12
2016-05-19T12:14:13.455Z,37.93
2016-05-19T12:15:10.958Z,38.02
2016-05-19T12:16:10.353Z,37.93
2016-05-19T12:17:10.511Z,38.02
2016-05-19T12:18:10.467Z,37.93
2016-05-19T12:19:10.283Z,38.22
2016-05-19T12:20:10.347Z,37.55
2016-05-19T12:21:13.131Z,37.55
2016-05-19T12:22:10.134Z,37.16
2016-05-19T12:23:10.027Z,36.78
2016-05-19T12:24:13.077Z,35.93
2016-05-19T12:25:10.032Z,35.74
2016-05-19T12:26:19.113Z,35.08
2016-05-19T12:27:13.288Z,34.8
2016-05-19T12:28:10.010Z,34.8
2016-05-19T12:29:12.778Z,34.62
2016-05-19T12:30:09.953Z,34.33
2016-05-19T12:31:09.690Z,33.56
2016-05-19T12:32:09.630Z,33.48
2016-05-19T12:33:12.617Z,33.28
2016-05-19T12:34:12.573Z,33.47
2016-05-19T12:35:09.512Z,33.47
2016-05-19T12:36:09.453Z,33.28
2016-05-19T12:37:09.393Z,33.08
2016-05-19T12:38:09.646Z,33.47
2016-05-19T12:39:14.992Z,33.66
2016-05-19T12:40:09.276Z,33.47
2016-05-19T12:41:09.389Z,33.47
2016-05-19T12:42:09.220Z,33.56
2016-05-19T12:43:09.706Z,34.12
2016-05-19T12:44:09.100Z,34.12
2016-05-19T12:45:09.336Z,34.03
2016-05-19T12:46:08.839Z,34.12
2016-05-19T12:47:11.983Z,34.3
2016-05-19T12:48:11.922Z,34.3
2016-05-19T12:49:11.863Z,34.12
2016-05-19T12:50:08.850Z,33.72
2016-05-19T12:51:08.775Z,33.54
2016-05-19T12:52:11.762Z,33.54
2016-05-19T12:53:08.905Z,33.26
2016-05-19T12:54:08.658Z,33.45
2016-05-19T12:55:08.457Z,33.16
2016-05-19T12:56:08.663Z,33.64